sensor_id;sensor_type;location;lat;lon;timestamp;temperature;humidity
25570;DHT22;17955;45.542;9.238;2022-08-18T00:02:10;23.20;99.90
25570;DHT22;17955;45.542;9.238;2022-08-18T00:04:38;23.10;99.90
25570;DHT22;17955;45.542;9.238;2022-08-18T00:07:06;23.10;99.90
25570;DHT22;17955;45.542;9.238;2022-08-18T00:09:35;23.20;99.90
25570;DHT22;17955;45.542;9.238;2022-08-18T00:12:05;23.20;99.90
25570;DHT22;17955;45.542;9.238;2022-08-18T00:14:33;23.10;99.90
25570;DHT22;17955;45.542;9.238;2022-08-18T00:17:01;22.50;99.90
25570;DHT22;17955;45.542;9.238;2022-08-18T00:19:28;23.40;99.90
25570;DHT22;17955;45.542;9.238;2022-08-18T00:21:55;23.20;99.90
25570;DHT22;17955;45.542;9.238;2022-08-18T00:24:24;23.30;99.90
25570;DHT22;17955;45.542;9.238;2022-08-18T00:26:51;23.20;99.90
25570;DHT22;17955;45.542;9.238;2022-08-18T00:29:19;23.30;99.90
25570;DHT22;17955;45.542;9.238;2022-08-18T00:31:46;22.80;99.90
25570;DHT22;17955;45.542;9.238;2022-08-18T00:34:14;23.20;99.90
25570;DHT22;17955;45.542;9.238;2022-08-18T00:36:41;23.10;99.90
25570;DHT22;17955;45.542;9.238;2022-08-18T00:39:09;22.90;99.90
25570;DHT22;17955;45.542;9.238;2022-08-18T00:41:36;22.90;99.90
25570;DHT22;17955;45.542;9.238;2022-08-18T00:44:03;23.20;99.90
25570;DHT22;17955;45.542;9.238;2022-08-18T00:46:32;23.10;99.90
25570;DHT22;17955;45.542;9.238;2022-08-18T00:49:00;22.80;99.90
25570;DHT22;17955;45.542;9.238;2022-08-18T00:51:34;22.90;99.90
25570;DHT22;17955;45.542;9.238;2022-08-18T00:54:11;23.00;99.90
25570;DHT22;17955;45.542;9.238;2022-08-18T00:56:43;22.90;99.90
25570;DHT22;17955;45.542;9.238;2022-08-18T00:59:16;23.00;99.90
25570;DHT22;17955;45.542;9.238;2022-08-18T01:01:45;22.90;99.90
25570;DHT22;17955;45.542;9.238;2022-08-18T01:04:18;22.90;99.90
25570;DHT22;17955;45.542;9.238;2022-08-18T01:06:51;23.00;99.90
25570;DHT22;17955;45.542;9.238;2022-08-18T01:09:19;23.00;99.90
25570;DHT22;17955;45.542;9.238;2022-08-18T01:11:46;22.90;99.90
25570;DHT22;17955;45.542;9.238;2022-08-18T01:14:14;22.90;99.90
25570;DHT22;17955;45.542;9.238;2022-08-18T01:16:43;22.90;99.90
25570;DHT22;17955;45.542;9.238;2022-08-18T01:19:39;22.90;99.90
25570;DHT22;17955;45.542;9.238;2022-08-18T01:22:29;22.90;99.90
25570;DHT22;17955;45.542;9.238;2022-08-18T01:25:00;22.90;99.90
25570;DHT22;17955;45.542;9.238;2022-08-18T01:27:46;22.70;99.90
25570;DHT22;17955;45.542;9.238;2022-08-18T01:30:15;22.90;99.90
25570;DHT22;17955;45.542;9.238;2022-08-18T01:32:43;22.90;99.90
25570;DHT22;17955;45.542;9.238;2022-08-18T01:35:12;22.80;99.90
25570;DHT22;17955;45.542;9.238;2022-08-18T01:37:40;22.90;99.90
25570;DHT22;17955;45.542;9.238;2022-08-18T01:40:12;22.80;99.90
25570;DHT22;17955;45.542;9.238;2022-08-18T01:42:40;22.60;99.90
25570;DHT22;17955;45.542;9.238;2022-08-18T01:45:11;22.90;99.90
25570;DHT22;17955;45.542;9.238;2022-08-18T01:47:38;22.70;99.90
25570;DHT22;17955;45.542;9.238;2022-08-18T01:50:07;22.90;99.90
25570;DHT22;17955;45.542;9.238;2022-08-18T01:52:35;22.70;99.90
25570;DHT22;17955;45.542;9.238;2022-08-18T01:55:03;22.80;99.90
25570;DHT22;17955;45.542;9.238;2022-08-18T01:57:31;22.80;99.90
25570;DHT22;17955;45.542;9.238;2022-08-18T01:59:58;22.90;99.90
25570;DHT22;17955;45.542;9.238;2022-08-18T02:02:28;22.90;99.90
25570;DHT22;17955;45.542;9.238;2022-08-18T02:05:00;23.40;99.90
25570;DHT22;17955;45.542;9.238;2022-08-18T02:07:28;22.80;99.90
25570;DHT22;17955;45.542;9.238;2022-08-18T02:09:55;22.80;99.90
25570;DHT22;17955;45.542;9.238;2022-08-18T02:12:22;22.70;99.90
25570;DHT22;17955;45.542;9.238;2022-08-18T02:14:51;22.20;99.90
25570;DHT22;17955;45.542;9.238;2022-08-18T02:17:18;22.60;99.90
25570;DHT22;17955;45.542;9.238;2022-08-18T02:19:46;22.80;99.90
25570;DHT22;17955;45.542;9.238;2022-08-18T02:22:19;22.70;99.90
25570;DHT22;17955;45.542;9.238;2022-08-18T02:24:47;22.70;99.90
25570;DHT22;17955;45.542;9.238;2022-08-18T02:27:15;22.30;99.90
25570;DHT22;17955;45.542;9.238;2022-08-18T02:29:42;22.50;99.90
25570;DHT22;17955;45.542;9.238;2022-08-18T02:32:10;22.80;99.90
25570;DHT22;17955;45.542;9.238;2022-08-18T02:34:37;22.70;99.90
25570;DHT22;17955;45.542;9.238;2022-08-18T02:37:05;22.90;99.90
25570;DHT22;17955;45.542;9.238;2022-08-18T02:39:33;22.60;99.90
25570;DHT22;17955;45.542;9.238;2022-08-18T02:42:00;22.90;99.90
25570;DHT22;17955;45.542;9.238;2022-08-18T02:44:28;22.50;99.90
25570;DHT22;17955;45.542;9.238;2022-08-18T02:46:56;22.70;99.90
25570;DHT22;17955;45.542;9.238;2022-08-18T02:49:25;22.80;99.90
25570;DHT22;17955;45.542;9.238;2022-08-18T02:51:52;22.80;99.90
25570;DHT22;17955;45.542;9.238;2022-08-18T02:54:21;22.90;99.90
25570;DHT22;17955;45.542;9.238;2022-08-18T02:56:49;22.90;99.90
25570;DHT22;17955;45.542;9.238;2022-08-18T02:59:18;22.80;99.90
25570;DHT22;17955;45.542;9.238;2022-08-18T03:01:48;23.00;99.90
25570;DHT22;17955;45.542;9.238;2022-08-18T03:04:18;23.00;99.90
25570;DHT22;17955;45.542;9.238;2022-08-18T03:06:46;23.20;99.90
25570;DHT22;17955;45.542;9.238;2022-08-18T03:09:15;22.80;99.90
25570;DHT22;17955;45.542;9.238;2022-08-18T03:11:43;22.80;99.90
25570;DHT22;17955;45.542;9.238;2022-08-18T03:14:12;22.90;99.90
25570;DHT22;17955;45.542;9.238;2022-08-18T03:16:42;22.80;99.90
25570;DHT22;17955;45.542;9.238;2022-08-18T03:19:10;22.90;99.90
25570;DHT22;17955;45.542;9.238;2022-08-18T03:21:41;22.90;99.90
25570;DHT22;17955;45.542;9.238;2022-08-18T03:24:11;22.70;99.90
25570;DHT22;17955;45.542;9.238;2022-08-18T03:26:40;22.70;99.90
25570;DHT22;17955;45.542;9.238;2022-08-18T03:29:08;22.80;99.90
25570;DHT22;17955;45.542;9.238;2022-08-18T03:31:35;22.70;99.90
25570;DHT22;17955;45.542;9.238;2022-08-18T03:34:05;23.50;99.90
25570;DHT22;17955;45.542;9.238;2022-08-18T03:36:34;22.70;99.90
25570;DHT22;17955;45.542;9.238;2022-08-18T03:39:03;23.50;99.90
25570;DHT22;17955;45.542;9.238;2022-08-18T03:41:31;22.60;99.90
25570;DHT22;17955;45.542;9.238;2022-08-18T03:44:00;22.70;99.90
25570;DHT22;17955;45.542;9.238;2022-08-18T03:46:27;22.40;99.90
25570;DHT22;17955;45.542;9.238;2022-08-18T03:48:56;22.90;99.90
25570;DHT22;17955;45.542;9.238;2022-08-18T03:51:25;22.60;99.90
25570;DHT22;17955;45.542;9.238;2022-08-18T03:53:54;23.00;99.90
25570;DHT22;17955;45.542;9.238;2022-08-18T03:56:23;22.70;99.90
25570;DHT22;17955;45.542;9.238;2022-08-18T03:58:53;22.30;99.90
25570;DHT22;17955;45.542;9.238;2022-08-18T04:01:23;22.60;99.90
25570;DHT22;17955;45.542;9.238;2022-08-18T04:03:53;22.80;99.90
25570;DHT22;17955;45.542;9.238;2022-08-18T04:06:24;22.40;99.90
25570;DHT22;17955;45.542;9.238;2022-08-18T04:08:52;22.70;99.90
25570;DHT22;17955;45.542;9.238;2022-08-18T04:11:19;22.70;99.90
25570;DHT22;17955;45.542;9.238;2022-08-18T04:13:46;22.70;99.90
25570;DHT22;17955;45.542;9.238;2022-08-18T04:16:14;22.70;99.90
25570;DHT22;17955;45.542;9.238;2022-08-18T04:18:42;22.90;99.90
25570;DHT22;17955;45.542;9.238;2022-08-18T04:21:10;22.80;99.90
25570;DHT22;17955;45.542;9.238;2022-08-18T04:23:39;22.60;99.90
25570;DHT22;17955;45.542;9.238;2022-08-18T04:26:08;22.70;99.90
25570;DHT22;17955;45.542;9.238;2022-08-18T04:28:36;22.50;99.90
25570;DHT22;17955;45.542;9.238;2022-08-18T04:31:06;22.80;99.90
25570;DHT22;17955;45.542;9.238;2022-08-18T04:33:35;22.90;99.90
25570;DHT22;17955;45.542;9.238;2022-08-18T04:36:06;22.80;99.90
25570;DHT22;17955;45.542;9.238;2022-08-18T04:38:35;23.00;99.90
25570;DHT22;17955;45.542;9.238;2022-08-18T04:41:02;22.70;99.90
25570;DHT22;17955;45.542;9.238;2022-08-18T04:43:29;23.00;99.90
25570;DHT22;17955;45.542;9.238;2022-08-18T04:45:56;22.80;99.90
25570;DHT22;17955;45.542;9.238;2022-08-18T04:48:27;22.80;99.90
25570;DHT22;17955;45.542;9.238;2022-08-18T04:51:04;22.80;99.90
25570;DHT22;17955;45.542;9.238;2022-08-18T04:53:33;22.80;99.90
25570;DHT22;17955;45.542;9.238;2022-08-18T04:56:16;22.70;99.90
25570;DHT22;17955;45.542;9.238;2022-08-18T04:58:46;22.60;99.90
25570;DHT22;17955;45.542;9.238;2022-08-18T05:01:18;22.40;99.90
25570;DHT22;17955;45.542;9.238;2022-08-18T05:03:46;22.40;99.90
25570;DHT22;17955;45.542;9.238;2022-08-18T05:06:15;22.50;99.90
25570;DHT22;17955;45.542;9.238;2022-08-18T05:08:42;22.40;99.90
25570;DHT22;17955;45.542;9.238;2022-08-18T05:11:09;22.20;99.90
25570;DHT22;17955;45.542;9.238;2022-08-18T05:13:36;22.40;99.90
25570;DHT22;17955;45.542;9.238;2022-08-18T05:16:03;22.10;99.90
25570;DHT22;17955;45.542;9.238;2022-08-18T05:18:32;21.90;99.90
25570;DHT22;17955;45.542;9.238;2022-08-18T05:21:03;22.10;99.90
25570;DHT22;17955;45.542;9.238;2022-08-18T05:23:32;21.90;99.90
25570;DHT22;17955;45.542;9.238;2022-08-18T05:26:00;21.90;99.90
25570;DHT22;17955;45.542;9.238;2022-08-18T05:28:28;21.70;99.90
25570;DHT22;17955;45.542;9.238;2022-08-18T05:30:55;21.80;99.90
25570;DHT22;17955;45.542;9.238;2022-08-18T05:33:22;21.90;99.90
25570;DHT22;17955;45.542;9.238;2022-08-18T05:35:52;21.80;99.90
25570;DHT22;17955;45.542;9.238;2022-08-18T05:38:33;21.30;99.90
25570;DHT22;17955;45.542;9.238;2022-08-18T05:41:09;21.30;99.90
25570;DHT22;17955;45.542;9.238;2022-08-18T05:43:38;21.40;99.90
25570;DHT22;17955;45.542;9.238;2022-08-18T05:46:06;21.50;99.90
25570;DHT22;17955;45.542;9.238;2022-08-18T05:48:35;21.10;99.90
25570;DHT22;17955;45.542;9.238;2022-08-18T05:51:17;21.10;99.90
25570;DHT22;17955;45.542;9.238;2022-08-18T05:53:48;21.20;99.90
25570;DHT22;17955;45.542;9.238;2022-08-18T05:56:35;21.00;99.90
25570;DHT22;17955;45.542;9.238;2022-08-18T05:59:21;21.30;99.90
25570;DHT22;17955;45.542;9.238;2022-08-18T06:01:55;21.00;99.90
25570;DHT22;17955;45.542;9.238;2022-08-18T06:04:43;21.40;99.90
25570;DHT22;17955;45.542;9.238;2022-08-18T06:07:14;21.20;99.90
25570;DHT22;17955;45.542;9.238;2022-08-18T06:09:46;21.00;99.90
25570;DHT22;17955;45.542;9.238;2022-08-18T06:12:21;20.90;99.90
25570;DHT22;17955;45.542;9.238;2022-08-18T06:14:49;20.60;99.90
25570;DHT22;17955;45.542;9.238;2022-08-18T06:17:36;20.60;99.90
25570;DHT22;17955;45.542;9.238;2022-08-18T06:20:13;20.20;99.90
25570;DHT22;17955;45.542;9.238;2022-08-18T06:22:47;19.80;99.90
25570;DHT22;17955;45.542;9.238;2022-08-18T06:25:22;20.30;99.90
25570;DHT22;17955;45.542;9.238;2022-08-18T06:27:55;20.30;99.90
25570;DHT22;17955;45.542;9.238;2022-08-18T06:30:45;20.20;99.90
25570;DHT22;17955;45.542;9.238;2022-08-18T06:33:31;20.20;99.90
25570;DHT22;17955;45.542;9.238;2022-08-18T06:36:04;20.60;99.90
25570;DHT22;17955;45.542;9.238;2022-08-18T06:38:45;20.30;99.90
25570;DHT22;17955;45.542;9.238;2022-08-18T06:41:18;20.30;99.90
25570;DHT22;17955;45.542;9.238;2022-08-18T06:43:55;20.40;99.90
25570;DHT22;17955;45.542;9.238;2022-08-18T06:46:31;20.60;99.90
25570;DHT22;17955;45.542;9.238;2022-08-18T06:49:03;20.30;99.90
25570;DHT22;17955;45.542;9.238;2022-08-18T06:51:31;20.70;99.90
25570;DHT22;17955;45.542;9.238;2022-08-18T06:54:00;20.80;99.90
25570;DHT22;17955;45.542;9.238;2022-08-18T06:56:45;20.70;99.90
25570;DHT22;17955;45.542;9.238;2022-08-18T06:59:21;20.60;99.90
25570;DHT22;17955;45.542;9.238;2022-08-18T07:01:53;20.70;99.90
25570;DHT22;17955;45.542;9.238;2022-08-18T07:04:38;20.70;99.90
25570;DHT22;17955;45.542;9.238;2022-08-18T07:07:14;20.80;99.90
25570;DHT22;17955;45.542;9.238;2022-08-18T07:09:42;21.10;99.90
25570;DHT22;17955;45.542;9.238;2022-08-18T07:12:18;21.20;99.90
25570;DHT22;17955;45.542;9.238;2022-08-18T07:14:48;21.20;99.90
25570;DHT22;17955;45.542;9.238;2022-08-18T07:17:21;21.30;99.90
25570;DHT22;17955;45.542;9.238;2022-08-18T07:20:01;21.30;99.90
25570;DHT22;17955;45.542;9.238;2022-08-18T07:22:29;21.30;99.90
25570;DHT22;17955;45.542;9.238;2022-08-18T07:24:59;21.30;99.90
25570;DHT22;17955;45.542;9.238;2022-08-18T07:27:43;21.20;99.90
25570;DHT22;17955;45.542;9.238;2022-08-18T07:30:13;21.40;99.90
25570;DHT22;17955;45.542;9.238;2022-08-18T07:32:53;21.20;99.90
25570;DHT22;17955;45.542;9.238;2022-08-18T07:35:24;21.00;99.90
25570;DHT22;17955;45.542;9.238;2022-08-18T07:37:56;21.20;99.90
25570;DHT22;17955;45.542;9.238;2022-08-18T07:40:31;21.20;99.90
25570;DHT22;17955;45.542;9.238;2022-08-18T07:43:05;21.20;99.90
25570;DHT22;17955;45.542;9.238;2022-08-18T07:45:36;21.30;99.90
25570;DHT22;17955;45.542;9.238;2022-08-18T07:48:09;21.30;99.90
25570;DHT22;17955;45.542;9.238;2022-08-18T07:50:44;21.60;99.90
25570;DHT22;17955;45.542;9.238;2022-08-18T07:53:31;21.50;99.90
25570;DHT22;17955;45.542;9.238;2022-08-18T07:56:10;21.30;99.90
25570;DHT22;17955;45.542;9.238;2022-08-18T07:58:45;21.30;99.90
25570;DHT22;17955;45.542;9.238;2022-08-18T08:01:20;21.20;99.90
25570;DHT22;17955;45.542;9.238;2022-08-18T08:03:56;21.40;99.90
25570;DHT22;17955;45.542;9.238;2022-08-18T08:06:30;21.30;99.90
25570;DHT22;17955;45.542;9.238;2022-08-18T08:09:04;21.60;99.90
25570;DHT22;17955;45.542;9.238;2022-08-18T08:11:42;21.10;99.90
25570;DHT22;17955;45.542;9.238;2022-08-18T08:14:25;21.50;99.90
25570;DHT22;17955;45.542;9.238;2022-08-18T08:17:02;21.30;99.90
25570;DHT22;17955;45.542;9.238;2022-08-18T08:22:38;21.50;99.90
25570;DHT22;17955;45.542;9.238;2022-08-18T08:25:14;21.50;99.90
25570;DHT22;17955;45.542;9.238;2022-08-18T08:27:53;21.70;99.90
25570;DHT22;17955;45.542;9.238;2022-08-18T08:30:28;21.50;99.90
25570;DHT22;17955;45.542;9.238;2022-08-18T08:33:04;21.50;99.90
25570;DHT22;17955;45.542;9.238;2022-08-18T08:35:40;21.40;99.90
25570;DHT22;17955;45.542;9.238;2022-08-18T08:38:12;21.40;99.90
25570;DHT22;17955;45.542;9.238;2022-08-18T08:40:48;21.30;99.90
25570;DHT22;17955;45.542;9.238;2022-08-18T08:43:22;21.60;99.90
25570;DHT22;17955;45.542;9.238;2022-08-18T08:46:03;21.30;99.90
25570;DHT22;17955;45.542;9.238;2022-08-18T08:48:36;21.30;99.90
25570;DHT22;17955;45.542;9.238;2022-08-18T08:51:28;21.30;99.90
25570;DHT22;17955;45.542;9.238;2022-08-18T08:54:05;21.30;99.90
25570;DHT22;17955;45.542;9.238;2022-08-18T08:56:39;21.50;99.90
25570;DHT22;17955;45.542;9.238;2022-08-18T08:59:10;21.20;99.90
25570;DHT22;17955;45.542;9.238;2022-08-18T09:01:44;21.20;99.90
25570;DHT22;17955;45.542;9.238;2022-08-18T09:04:23;21.70;99.90
25570;DHT22;17955;45.542;9.238;2022-08-18T09:07:06;21.20;99.90
25570;DHT22;17955;45.542;9.238;2022-08-18T09:10:06;21.20;99.90
25570;DHT22;17955;45.542;9.238;2022-08-18T09:12:53;21.20;99.90
25570;DHT22;17955;45.542;9.238;2022-08-18T09:15:54;21.20;99.90
25570;DHT22;17955;45.542;9.238;2022-08-18T09:18:45;21.40;99.90
25570;DHT22;17955;45.542;9.238;2022-08-18T09:21:25;21.00;99.90
25570;DHT22;17955;45.542;9.238;2022-08-18T09:24:05;21.10;99.90
25570;DHT22;17955;45.542;9.238;2022-08-18T09:26:43;21.00;99.90
25570;DHT22;17955;45.542;9.238;2022-08-18T09:29:17;21.20;99.90
25570;DHT22;17955;45.542;9.238;2022-08-18T09:35:06;20.90;99.90
25570;DHT22;17955;45.542;9.238;2022-08-18T09:37:45;21.10;99.90
25570;DHT22;17955;45.542;9.238;2022-08-18T09:40:34;20.70;99.90
25570;DHT22;17955;45.542;9.238;2022-08-18T09:43:29;20.70;99.90
25570;DHT22;17955;45.542;9.238;2022-08-18T09:45:58;21.10;99.90
25570;DHT22;17955;45.542;9.238;2022-08-18T09:48:31;20.70;99.90
25570;DHT22;17955;45.542;9.238;2022-08-18T09:51:16;21.00;99.90
25570;DHT22;17955;45.542;9.238;2022-08-18T09:54:11;21.00;99.90
25570;DHT22;17955;45.542;9.238;2022-08-18T10:00:16;20.50;99.90
25570;DHT22;17955;45.542;9.238;2022-08-18T10:03:12;20.90;99.90
25570;DHT22;17955;45.542;9.238;2022-08-18T10:05:56;21.00;99.90
25570;DHT22;17955;45.542;9.238;2022-08-18T10:08:46;21.00;99.90
25570;DHT22;17955;45.542;9.238;2022-08-18T10:11:28;21.10;99.90
25570;DHT22;17955;45.542;9.238;2022-08-18T10:14:20;20.60;99.90
25570;DHT22;17955;45.542;9.238;2022-08-18T10:16:56;20.70;99.90
25570;DHT22;17955;45.542;9.238;2022-08-18T10:19:30;20.70;99.90
25570;DHT22;17955;45.542;9.238;2022-08-18T10:22:04;20.60;99.90
25570;DHT22;17955;45.542;9.238;2022-08-18T10:24:39;20.70;99.90
25570;DHT22;17955;45.542;9.238;2022-08-18T10:27:32;20.70;99.90
25570;DHT22;17955;45.542;9.238;2022-08-18T10:30:00;20.60;99.90
25570;DHT22;17955;45.542;9.238;2022-08-18T10:32:42;20.30;99.90
25570;DHT22;17955;45.542;9.238;2022-08-18T10:38:23;20.70;99.90
25570;DHT22;17955;45.542;9.238;2022-08-18T10:40:57;20.60;99.90
25570;DHT22;17955;45.542;9.238;2022-08-18T10:43:31;20.60;99.90
25570;DHT22;17955;45.542;9.238;2022-08-18T10:46:01;20.60;99.90
25570;DHT22;17955;45.542;9.238;2022-08-18T10:48:30;20.70;99.90
25570;DHT22;17955;45.542;9.238;2022-08-18T10:51:05;20.50;99.90
25570;DHT22;17955;45.542;9.238;2022-08-18T10:53:39;20.90;99.90
25570;DHT22;17955;45.542;9.238;2022-08-18T10:56:11;20.70;99.90
25570;DHT22;17955;45.542;9.238;2022-08-18T10:58:57;20.40;99.90
25570;DHT22;17955;45.542;9.238;2022-08-18T11:01:40;20.60;99.90
25570;DHT22;17955;45.542;9.238;2022-08-18T11:04:24;20.70;99.90
25570;DHT22;17955;45.542;9.238;2022-08-18T11:07:05;20.90;99.90
25570;DHT22;17955;45.542;9.238;2022-08-18T11:09:34;20.70;99.90
25570;DHT22;17955;45.542;9.238;2022-08-18T11:12:04;20.10;99.90
25570;DHT22;17955;45.542;9.238;2022-08-18T11:14:53;20.40;99.90
25570;DHT22;17955;45.542;9.238;2022-08-18T11:17:32;20.70;99.90
25570;DHT22;17955;45.542;9.238;2022-08-18T11:20:05;20.40;99.90
25570;DHT22;17955;45.542;9.238;2022-08-18T11:22:35;20.40;99.90
25570;DHT22;17955;45.542;9.238;2022-08-18T11:25:05;20.50;99.90
25570;DHT22;17955;45.542;9.238;2022-08-18T11:27:46;20.30;99.90
25570;DHT22;17955;45.542;9.238;2022-08-18T11:30:14;20.50;99.90
25570;DHT22;17955;45.542;9.238;2022-08-18T11:32:41;20.40;99.90
25570;DHT22;17955;45.542;9.238;2022-08-18T11:35:13;20.60;99.90
25570;DHT22;17955;45.542;9.238;2022-08-18T11:37:45;20.40;99.90
25570;DHT22;17955;45.542;9.238;2022-08-18T11:40:32;20.70;99.90
25570;DHT22;17955;45.542;9.238;2022-08-18T11:43:05;20.50;99.90
25570;DHT22;17955;45.542;9.238;2022-08-18T11:45:49;20.50;99.90
25570;DHT22;17955;45.542;9.238;2022-08-18T11:48:20;20.50;99.90
25570;DHT22;17955;45.542;9.238;2022-08-18T11:51:00;21.60;99.90
25570;DHT22;17955;45.542;9.238;2022-08-18T11:53:40;20.60;99.90
25570;DHT22;17955;45.542;9.238;2022-08-18T11:56:16;20.80;99.90
25570;DHT22;17955;45.542;9.238;2022-08-18T11:58:47;20.70;99.90
25570;DHT22;17955;45.542;9.238;2022-08-18T12:01:35;20.80;99.90
25570;DHT22;17955;45.542;9.238;2022-08-18T12:04:12;21.30;99.90
25570;DHT22;17955;45.542;9.238;2022-08-18T12:06:53;21.00;99.90
25570;DHT22;17955;45.542;9.238;2022-08-18T12:09:33;21.00;99.90
25570;DHT22;17955;45.542;9.238;2022-08-18T12:12:02;21.30;99.90
25570;DHT22;17955;45.542;9.238;2022-08-18T12:14:33;21.40;99.90
25570;DHT22;17955;45.542;9.238;2022-08-18T12:17:01;21.40;99.90
25570;DHT22;17955;45.542;9.238;2022-08-18T12:19:29;21.50;99.90
25570;DHT22;17955;45.542;9.238;2022-08-18T12:21:58;21.50;99.90
25570;DHT22;17955;45.542;9.238;2022-08-18T12:24:28;21.40;99.90
25570;DHT22;17955;45.542;9.238;2022-08-18T12:26:56;21.60;99.90
25570;DHT22;17955;45.542;9.238;2022-08-18T12:29:25;21.70;99.90
25570;DHT22;17955;45.542;9.238;2022-08-18T12:31:54;21.50;99.90
25570;DHT22;17955;45.542;9.238;2022-08-18T12:34:22;21.70;99.90
25570;DHT22;17955;45.542;9.238;2022-08-18T12:36:51;21.70;99.90
25570;DHT22;17955;45.542;9.238;2022-08-18T12:39:19;21.80;99.90
25570;DHT22;17955;45.542;9.238;2022-08-18T12:41:46;21.80;99.90
25570;DHT22;17955;45.542;9.238;2022-08-18T12:44:13;22.00;99.90
25570;DHT22;17955;45.542;9.238;2022-08-18T12:46:40;22.10;99.90
25570;DHT22;17955;45.542;9.238;2022-08-18T12:49:14;22.50;99.90
25570;DHT22;17955;45.542;9.238;2022-08-18T12:51:41;22.40;99.90
25570;DHT22;17955;45.542;9.238;2022-08-18T12:54:08;22.50;99.90
25570;DHT22;17955;45.542;9.238;2022-08-18T12:56:35;22.60;99.90
25570;DHT22;17955;45.542;9.238;2022-08-18T12:59:04;22.50;99.90
25570;DHT22;17955;45.542;9.238;2022-08-18T13:01:31;22.70;99.90
25570;DHT22;17955;45.542;9.238;2022-08-18T13:03:59;22.70;99.90
25570;DHT22;17955;45.542;9.238;2022-08-18T13:06:27;22.70;99.90
25570;DHT22;17955;45.542;9.238;2022-08-18T13:08:55;22.50;99.90
25570;DHT22;17955;45.542;9.238;2022-08-18T13:11:23;22.40;99.90
25570;DHT22;17955;45.542;9.238;2022-08-18T13:13:51;22.60;99.90
25570;DHT22;17955;45.542;9.238;2022-08-18T13:16:18;22.40;99.90
25570;DHT22;17955;45.542;9.238;2022-08-18T13:18:46;22.50;99.90
25570;DHT22;17955;45.542;9.238;2022-08-18T13:21:14;22.70;99.90
25570;DHT22;17955;45.542;9.238;2022-08-18T13:23:44;22.40;99.90
25570;DHT22;17955;45.542;9.238;2022-08-18T13:26:19;22.20;99.90
25570;DHT22;17955;45.542;9.238;2022-08-18T13:28:47;22.30;99.90
25570;DHT22;17955;45.542;9.238;2022-08-18T13:31:14;22.20;99.90
25570;DHT22;17955;45.542;9.238;2022-08-18T13:33:41;22.40;99.90
25570;DHT22;17955;45.542;9.238;2022-08-18T13:36:08;22.40;99.90
25570;DHT22;17955;45.542;9.238;2022-08-18T13:38:35;22.40;99.90
25570;DHT22;17955;45.542;9.238;2022-08-18T13:41:04;22.80;99.90
25570;DHT22;17955;45.542;9.238;2022-08-18T13:43:34;22.80;99.90
25570;DHT22;17955;45.542;9.238;2022-08-18T13:46:02;23.30;99.90
25570;DHT22;17955;45.542;9.238;2022-08-18T13:48:30;22.80;99.90
25570;DHT22;17955;45.542;9.238;2022-08-18T13:50:58;23.10;99.90
25570;DHT22;17955;45.542;9.238;2022-08-18T13:53:26;22.70;99.90
25570;DHT22;17955;45.542;9.238;2022-08-18T13:55:54;22.70;99.90
25570;DHT22;17955;45.542;9.238;2022-08-18T13:58:25;22.70;99.90
25570;DHT22;17955;45.542;9.238;2022-08-18T14:00:55;22.70;99.90
25570;DHT22;17955;45.542;9.238;2022-08-18T14:03:23;22.70;99.90
25570;DHT22;17955;45.542;9.238;2022-08-18T14:05:50;22.60;99.90
25570;DHT22;17955;45.542;9.238;2022-08-18T14:08:18;22.80;99.90
25570;DHT22;17955;45.542;9.238;2022-08-18T14:10:46;22.70;99.90
25570;DHT22;17955;45.542;9.238;2022-08-18T14:13:14;22.60;99.90
25570;DHT22;17955;45.542;9.238;2022-08-18T14:15:43;22.70;99.90
25570;DHT22;17955;45.542;9.238;2022-08-18T14:18:10;22.70;99.90
25570;DHT22;17955;45.542;9.238;2022-08-18T14:20:38;22.70;99.90
25570;DHT22;17955;45.542;9.238;2022-08-18T14:23:22;22.80;99.90
25570;DHT22;17955;45.542;9.238;2022-08-18T14:26:07;23.10;99.90
25570;DHT22;17955;45.542;9.238;2022-08-18T14:28:51;23.20;99.90
25570;DHT22;17955;45.542;9.238;2022-08-18T14:31:19;22.70;99.90
25570;DHT22;17955;45.542;9.238;2022-08-18T14:33:47;23.10;99.90
25570;DHT22;17955;45.542;9.238;2022-08-18T14:36:15;22.90;99.90
25570;DHT22;17955;45.542;9.238;2022-08-18T14:38:42;23.00;99.90
25570;DHT22;17955;45.542;9.238;2022-08-18T14:41:11;23.00;99.90
25570;DHT22;17955;45.542;9.238;2022-08-18T14:43:38;22.70;99.90
25570;DHT22;17955;45.542;9.238;2022-08-18T14:46:05;22.90;99.90
25570;DHT22;17955;45.542;9.238;2022-08-18T14:48:35;23.30;99.90
25570;DHT22;17955;45.542;9.238;2022-08-18T14:51:02;22.70;99.90
25570;DHT22;17955;45.542;9.238;2022-08-18T14:53:31;22.70;99.90
25570;DHT22;17955;45.542;9.238;2022-08-18T14:55:58;22.60;99.90
25570;DHT22;17955;45.542;9.238;2022-08-18T14:58:29;22.90;99.90
25570;DHT22;17955;45.542;9.238;2022-08-18T15:01:04;22.90;99.90
25570;DHT22;17955;45.542;9.238;2022-08-18T15:03:35;22.80;99.90
25570;DHT22;17955;45.542;9.238;2022-08-18T15:06:04;22.70;99.90
25570;DHT22;17955;45.542;9.238;2022-08-18T15:08:32;23.10;99.90
25570;DHT22;17955;45.542;9.238;2022-08-18T15:10:59;22.60;99.90
25570;DHT22;17955;45.542;9.238;2022-08-18T15:13:31;23.00;99.90
25570;DHT22;17955;45.542;9.238;2022-08-18T15:15:59;22.90;99.90
25570;DHT22;17955;45.542;9.238;2022-08-18T15:18:30;22.90;99.90
25570;DHT22;17955;45.542;9.238;2022-08-18T15:20:58;23.00;99.90
25570;DHT22;17955;45.542;9.238;2022-08-18T15:23:43;23.10;99.90
25570;DHT22;17955;45.542;9.238;2022-08-18T15:26:27;23.40;99.90
25570;DHT22;17955;45.542;9.238;2022-08-18T15:28:58;23.40;99.90
25570;DHT22;17955;45.542;9.238;2022-08-18T15:31:25;23.70;99.90
25570;DHT22;17955;45.542;9.238;2022-08-18T15:33:52;23.50;99.90
25570;DHT22;17955;45.542;9.238;2022-08-18T15:36:24;23.40;99.90
25570;DHT22;17955;45.542;9.238;2022-08-18T15:38:51;23.40;99.90
25570;DHT22;17955;45.542;9.238;2022-08-18T15:41:32;23.60;99.90
25570;DHT22;17955;45.542;9.238;2022-08-18T15:44:00;23.50;99.90
25570;DHT22;17955;45.542;9.238;2022-08-18T15:46:28;23.60;99.90
25570;DHT22;17955;45.542;9.238;2022-08-18T15:48:56;23.60;99.90
25570;DHT22;17955;45.542;9.238;2022-08-18T15:51:25;23.40;99.90
25570;DHT22;17955;45.542;9.238;2022-08-18T15:53:52;23.60;99.90
25570;DHT22;17955;45.542;9.238;2022-08-18T15:56:21;23.30;99.90
25570;DHT22;17955;45.542;9.238;2022-08-18T15:58:49;23.50;99.90
25570;DHT22;17955;45.542;9.238;2022-08-18T16:01:20;23.50;99.90
25570;DHT22;17955;45.542;9.238;2022-08-18T16:03:48;23.60;99.90
25570;DHT22;17955;45.542;9.238;2022-08-18T16:06:18;23.50;99.90
25570;DHT22;17955;45.542;9.238;2022-08-18T16:08:47;23.30;99.90
25570;DHT22;17955;45.542;9.238;2022-08-18T16:11:15;23.40;99.90
25570;DHT22;17955;45.542;9.238;2022-08-18T16:13:42;23.50;99.90
25570;DHT22;17955;45.542;9.238;2022-08-18T16:16:10;23.50;99.90